createdAt,value
2018-06-27T00:00:03.462Z,88
2018-06-27T00:05:05.283Z,89.7
2018-06-27T00:10:03.009Z,89.7
2018-06-27T00:15:03.298Z,90.1
2018-06-27T00:20:02.601Z,90.5
2018-06-27T00:25:07.991Z,91.1
2018-06-27T00:30:03.281Z,91.1
2018-06-27T00:35:07.622Z,91.9
2018-06-27T00:40:03.261Z,91.9
2018-06-27T00:45:05.186Z,92.4
2018-06-27T00:50:05.988Z,92.7
2018-06-27T00:55:02.836Z,92.7
2018-06-27T01:00:05.696Z,93.3
2018-06-27T01:05:05.999Z,93.6
2018-06-27T01:10:02.728Z,93.6
2018-06-27T01:15:03.044Z,94
2018-06-27T01:20:03.543Z,94.1
2018-06-27T01:25:05.210Z,94.3
2018-06-27T01:30:06.081Z,94.9
2018-06-27T01:35:05.318Z,94.9
2018-06-27T01:40:02.971Z,94.9
2018-06-27T01:45:03.273Z,95.2
2018-06-27T01:50:03.495Z,95.3
2018-06-27T01:55:05.324Z,95.8
2018-06-27T02:00:05.155Z,96
2018-06-27T02:05:18.103Z,96.2
2018-06-27T02:10:02.858Z,96.2
2018-06-27T02:15:03.148Z,96.4
2018-06-27T02:20:03.520Z,96.6
2018-06-27T02:25:02.861Z,96.8
2018-06-27T02:30:03.170Z,96.8
2018-06-27T02:35:03.491Z,97
2018-06-27T02:40:03.262Z,97.2
2018-06-27T02:45:10.261Z,97.6
2018-06-27T02:50:02.647Z,97.6
2018-06-27T02:55:02.943Z,97.7
2018-06-27T03:00:03.260Z,97.9
2018-06-27T03:05:02.674Z,98.1
2018-06-27T03:10:05.965Z,98.1
2018-06-27T03:15:17.994Z,98.3
2018-06-27T03:20:03.311Z,98.3
2018-06-27T03:25:05.281Z,98.6
2018-06-27T03:30:02.581Z,98.6
2018-06-27T03:35:15.567Z,98.9
2018-06-27T03:40:15.935Z,99.1
2018-06-27T03:45:07.645Z,99.3
2018-06-27T03:50:07.933Z,99.4
2018-06-27T03:55:10.938Z,99.5
2018-06-27T04:00:03.220Z,99.5
2018-06-27T04:05:05.041Z,99.6
2018-06-27T04:10:02.782Z,99.6
2018-06-27T04:15:03.147Z,99.7
2018-06-27T04:20:03.492Z,99.8
2018-06-27T04:25:05.280Z,48.7
2018-06-27T04:30:02.709Z,99.9
2018-06-27T04:35:05.544Z,99.5
2018-06-27T04:40:26.021Z,99.4
2018-06-27T04:45:10.899Z,99.1
2018-06-27T04:50:05.715Z,98.9
2018-06-27T04:55:05.062Z,98.6
2018-06-27T05:00:18.671Z,98
2018-06-27T05:05:02.774Z,98
2018-06-27T05:10:06.021Z,97.1
2018-06-27T05:15:05.410Z,96.5
2018-06-27T05:20:02.840Z,96.4
2018-06-27T05:25:05.760Z,95.9
2018-06-27T05:30:03.042Z,95.9
2018-06-27T05:35:05.860Z,95.6
2018-06-27T05:40:02.560Z,95.6
2018-06-27T05:45:05.588Z,95.3
2018-06-27T05:50:02.866Z,95.3
2018-06-27T05:55:05.755Z,95.1
2018-06-27T06:00:05.939Z,94.8
2018-06-27T06:05:02.982Z,94.8
2018-06-27T06:10:10.285Z,93.4
2018-06-27T06:15:03.093Z,93.4
2018-06-27T06:20:03.473Z,93.3
2018-06-27T06:25:05.374Z,92.5
2018-06-27T06:30:02.601Z,92.5
2018-06-27T06:35:05.773Z,90.9
2018-06-27T06:40:02.544Z,90.9
2018-06-27T06:45:05.365Z,90.3
2018-06-27T06:50:02.609Z,90.3
2018-06-27T06:55:05.543Z,87
2018-06-27T07:00:15.415Z,84.6
2018-06-27T07:05:08.116Z,82.9
2018-06-27T07:10:05.377Z,82.8
2018-06-27T07:15:08.199Z,79.8
2018-06-27T07:20:02.509Z,79.8
2018-06-27T07:25:02.886Z,80.3
2018-06-27T07:30:03.242Z,77.5
2018-06-27T07:35:05.133Z,77.2
2018-06-27T07:40:13.057Z,76.1
2018-06-27T07:45:03.429Z,76.2
2018-06-27T07:50:05.290Z,75.5
2018-06-27T07:55:10.836Z,75.1
2018-06-27T08:00:03.250Z,75.1
2018-06-27T08:05:02.564Z,74.1
2018-06-27T08:10:03.474Z,74
2018-06-27T08:15:03.030Z,71.2
2018-06-27T08:20:06.024Z,70.6
2018-06-27T08:25:05.340Z,69.4
2018-06-27T08:30:02.937Z,69.4
2018-06-27T08:35:03.321Z,68.6
2018-06-27T08:40:03.085Z,68.5
2018-06-27T08:45:20.217Z,69.4
2018-06-27T08:50:03.754Z,69.4
2018-06-27T08:55:15.576Z,68.8
2018-06-27T09:00:02.869Z,68.8
2018-06-27T09:05:03.300Z,67.6
2018-06-27T09:10:03.031Z,67.2
2018-06-27T09:15:07.642Z,67.7
2018-06-27T09:20:03.042Z,67.6
2018-06-27T09:25:03.336Z,65.4
2018-06-27T09:30:02.650Z,64.1
2018-06-27T09:35:03.049Z,64.3
2018-06-27T09:40:07.839Z,61.4
2018-06-27T09:45:08.273Z,59.3
2018-06-27T09:50:02.646Z,59.3
2018-06-27T09:55:03.192Z,60
2018-06-27T10:00:08.603Z,58
2018-06-27T10:05:05.360Z,58.9
2018-06-27T10:10:03.298Z,58.9
2018-06-27T10:15:02.665Z,59.1
2018-06-27T10:20:05.620Z,58.1
2018-06-27T10:25:03.505Z,58.1
2018-06-27T10:30:05.383Z,58.3
2018-06-27T10:35:05.739Z,57.2
2018-06-27T10:40:02.699Z,57.2
2018-06-27T10:45:05.517Z,56.8
2018-06-27T10:50:02.893Z,56.7
2018-06-27T11:00:08.479Z,55.4
2018-06-27T11:05:02.891Z,55.2
2018-06-27T11:10:02.652Z,53.4
2018-06-27T11:15:03.331Z,52.5
2018-06-27T11:20:15.391Z,52.7
2018-06-27T11:25:03.173Z,52.7
2018-06-27T11:30:03.522Z,52.3
2018-06-27T11:35:02.902Z,51.7
2018-06-27T11:40:02.763Z,51.4
2018-06-27T11:45:18.362Z,49.5
2018-06-27T11:50:02.876Z,49.5
2018-06-27T11:55:03.245Z,48.9
2018-06-27T12:00:10.115Z,50.7
2018-06-27T12:05:05.454Z,49.4
2018-06-27T12:10:03.213Z,49.4
2018-06-27T12:15:05.139Z,50.5
2018-06-27T12:20:06.044Z,50.1
2018-06-27T12:25:03.044Z,50.1
2018-06-27T12:30:03.501Z,51
2018-06-27T12:35:03.089Z,48.1
2018-06-27T12:40:02.893Z,48.3
2018-06-27T12:45:05.898Z,48.1
2018-06-27T12:50:03.535Z,48
2018-06-27T12:55:05.538Z,49.5
2018-06-27T13:00:05.418Z,50.4
2018-06-27T13:05:05.877Z,47.6
2018-06-27T13:10:02.614Z,47.5
2018-06-27T13:15:03.079Z,47.5
2018-06-27T13:20:03.583Z,47.6
2018-06-27T13:25:02.808Z,47.4
2018-06-27T13:30:03.196Z,44.4
2018-06-27T13:35:10.343Z,45
2018-06-27T13:40:03.140Z,44.8
2018-06-27T13:45:05.140Z,40.2
2018-06-27T13:50:08.704Z,43.1
2018-06-27T13:55:05.461Z,41
2018-06-27T14:00:15.462Z,41.3
2018-06-27T14:05:03.242Z,41.3
2018-06-27T14:10:05.713Z,41.8
2018-06-27T14:15:05.341Z,43.4
2018-06-27T14:20:05.388Z,42.2
2018-06-27T14:25:03.194Z,42.2
2018-06-27T14:30:15.193Z,43.9
2018-06-27T14:35:02.856Z,43.9
2018-06-27T14:40:05.264Z,45.1
2018-06-27T14:45:02.754Z,45.1
2018-06-27T14:50:02.959Z,44.7
2018-06-27T14:55:02.613Z,44.1
2018-06-27T15:00:02.795Z,42.4
2018-06-27T15:05:03.071Z,40.8
2018-06-27T15:10:02.667Z,40.4
2018-06-27T15:15:02.932Z,41.7
2018-06-27T15:20:03.243Z,42
2018-06-27T15:25:03.400Z,42.8
2018-06-27T15:30:05.136Z,43.7
2018-06-27T15:35:03.297Z,43.7
2018-06-27T15:40:03.360Z,44.4
2018-06-27T15:45:15.386Z,44.9
2018-06-27T15:50:03.058Z,44.9
2018-06-27T15:55:03.426Z,45.7
2018-06-27T16:00:07.999Z,46.2
2018-06-27T16:05:08.467Z,46.4
2018-06-27T16:10:05.939Z,46.6
2018-06-27T16:15:07.936Z,46.1
2018-06-27T16:20:02.684Z,46.1
2018-06-27T16:25:05.821Z,45.8
2018-06-27T16:30:05.785Z,44.6
2018-06-27T16:35:02.802Z,44.5
2018-06-27T16:40:07.824Z,44
2018-06-27T16:45:11.062Z,44.4
2018-06-27T16:50:02.634Z,44.4
2018-06-27T16:55:03.209Z,44.9
2018-06-27T17:00:05.208Z,45.1
2018-06-27T17:05:03.445Z,45.1
2018-06-27T17:10:03.340Z,44.5
2018-06-27T17:15:02.941Z,42.2
2018-06-27T17:20:08.481Z,42
2018-06-27T17:25:02.960Z,42
2018-06-27T17:30:03.347Z,42.1
2018-06-27T17:35:02.812Z,42.1
2018-06-27T17:40:05.234Z,43.4
2018-06-27T17:45:05.779Z,43.4
2018-06-27T17:50:03.239Z,43.4
2018-06-27T17:55:07.824Z,44.4
2018-06-27T18:00:05.779Z,43
2018-06-27T18:05:02.783Z,43
2018-06-27T18:10:10.281Z,44.3
2018-06-27T18:15:05.668Z,44.5
2018-06-27T18:20:03.185Z,44.5
2018-06-27T18:25:07.665Z,45.3
2018-06-27T18:30:08.236Z,46.6
2018-06-27T18:35:02.623Z,46.6
2018-06-27T18:40:06.140Z,47.8
2018-06-27T18:45:03.202Z,47.8
2018-06-27T18:50:05.123Z,49.4
2018-06-27T18:55:05.557Z,50.8
2018-06-27T19:00:03.000Z,50.8
2018-06-27T19:05:08.411Z,50.5
2018-06-27T19:10:05.905Z,51.9
2018-06-27T19:15:02.892Z,51.9
2018-06-27T19:20:08.530Z,53.8
2018-06-27T19:25:02.813Z,53.8
2018-06-27T19:30:03.218Z,55.9
2018-06-27T19:35:02.678Z,56.3
2018-06-27T19:40:06.101Z,56.8
2018-06-27T19:45:10.563Z,57.9
2018-06-27T19:50:02.952Z,57.9
2018-06-27T19:55:03.487Z,58.3
2018-06-27T20:00:13.230Z,59.4
2018-06-27T20:05:05.231Z,57
2018-06-27T20:10:05.643Z,56.5
2018-06-27T20:15:05.989Z,56.7
2018-06-27T20:20:15.262Z,57.5
2018-06-27T20:25:05.640Z,58.4
2018-06-27T20:30:08.130Z,59.6
2018-06-27T20:35:03.435Z,59.6
2018-06-27T20:40:08.379Z,62.1
2018-06-27T20:45:02.713Z,62.1
2018-06-27T20:50:05.692Z,65.7
2018-06-27T20:55:05.168Z,66.5
2018-06-27T21:00:08.612Z,68
2018-06-27T21:05:20.763Z,68.5
2018-06-27T21:10:03.563Z,68.5
2018-06-27T21:15:03.049Z,69.3
2018-06-27T21:20:11.182Z,70.9
2018-06-27T21:25:05.575Z,71.3
2018-06-27T21:30:05.554Z,71.7
2018-06-27T21:35:03.386Z,71.7
2018-06-27T21:40:03.246Z,72.1
2018-06-27T21:45:17.859Z,73.1
2018-06-27T21:50:03.204Z,73.2
2018-06-27T21:55:05.183Z,74.7
2018-06-27T22:00:03.535Z,74.6
2018-06-27T22:05:02.974Z,75.3
2018-06-27T22:10:07.919Z,76.1
2018-06-27T22:15:03.215Z,76.1
2018-06-27T22:20:05.391Z,76.6
2018-06-27T22:25:08.309Z,76.9
2018-06-27T22:30:07.778Z,77.2
2018-06-27T22:35:03.201Z,77.2
2018-06-27T22:40:03.053Z,77.4
2018-06-27T22:45:11.045Z,78
2018-06-27T22:50:03.392Z,78
2018-06-27T22:55:02.846Z,78.4
2018-06-27T23:00:03.232Z,78.5
2018-06-27T23:05:05.148Z,78.8
2018-06-27T23:10:05.577Z,79
2018-06-27T23:15:08.498Z,78.9
2018-06-27T23:20:02.886Z,79
2018-06-27T23:25:05.896Z,79.4
2018-06-27T23:30:03.277Z,79.2
2018-06-27T23:35:10.334Z,79
2018-06-27T23:40:03.153Z,79
2018-06-27T23:45:05.152Z,79.4
2018-06-27T23:50:05.144Z,79.6
2018-06-27T23:55:02.972Z,79.5
